createdAt,value
2018-08-08T00:01:57.532Z,26.68
2018-08-08T00:04:23.542Z,26.70
2018-08-08T00:06:49.557Z,26.72
2018-08-08T00:09:15.572Z,26.72
2018-08-08T00:11:41.582Z,26.72
2018-08-08T00:14:07.598Z,26.72
2018-08-08T00:16:33.646Z,26.73
2018-08-08T00:18:59.699Z,26.73
2018-08-08T00:21:25.716Z,26.73
2018-08-08T00:23:51.732Z,26.73
2018-08-08T00:26:17.737Z,26.73
2018-08-08T00:28:43.754Z,26.73
2018-08-08T00:31:09.761Z,26.73
2018-08-08T00:33:35.770Z,26.73
2018-08-08T00:36:01.773Z,26.72
2018-08-08T00:38:27.793Z,26.71
2018-08-08T00:40:53.809Z,26.71
2018-08-08T00:43:19.820Z,26.71
2018-08-08T00:45:45.840Z,26.71
2018-08-08T00:48:11.856Z,26.69
2018-08-08T00:50:37.863Z,26.69
2018-08-08T00:53:03.899Z,26.69
2018-08-08T00:55:29.906Z,26.69
2018-08-08T00:57:55.910Z,26.69
2018-08-08T01:00:21.921Z,26.68
2018-08-08T01:02:47.938Z,26.68
2018-08-08T01:05:13.945Z,26.68
2018-08-08T01:07:39.954Z,26.68
2018-08-08T01:10:05.960Z,26.69
2018-08-08T01:12:31.978Z,26.69
2018-08-08T01:14:58.024Z,26.69
2018-08-08T01:17:24.036Z,26.69
2018-08-08T01:19:50.046Z,26.69
2018-08-08T01:22:16.058Z,26.69
2018-08-08T01:24:42.070Z,26.69
2018-08-08T01:27:08.086Z,26.69
2018-08-08T01:29:34.134Z,26.69
2018-08-08T01:32:00.138Z,26.69
2018-08-08T01:34:26.144Z,26.70
2018-08-08T01:36:52.157Z,26.69
2018-08-08T01:39:18.163Z,26.69
2018-08-08T01:41:44.191Z,26.68
2018-08-08T01:44:10.195Z,26.68
2018-08-08T01:46:36.200Z,26.68
2018-08-08T01:49:02.211Z,26.67
2018-08-08T01:51:28.224Z,26.68
2018-08-08T01:53:54.230Z,26.66
2018-08-08T01:56:20.237Z,26.67
2018-08-08T01:58:46.252Z,26.66
2018-08-08T02:01:12.264Z,26.66
2018-08-08T02:03:38.283Z,26.66
2018-08-08T02:06:04.300Z,26.65
2018-08-08T02:08:30.306Z,26.65
2018-08-08T02:10:56.318Z,26.65
2018-08-08T02:13:22.388Z,26.65
2018-08-08T02:15:48.394Z,26.65
2018-08-08T02:18:14.412Z,26.65
2018-08-08T02:20:40.518Z,26.65
2018-08-08T02:23:06.491Z,26.66
2018-08-08T02:25:32.499Z,26.66
2018-08-08T02:27:58.514Z,26.66
2018-08-08T02:30:24.517Z,26.66
2018-08-08T02:32:50.534Z,26.66
2018-08-08T02:35:16.541Z,26.66
2018-08-08T02:37:42.553Z,26.66
2018-08-08T02:40:08.568Z,26.66
2018-08-08T02:42:34.576Z,26.66
2018-08-08T02:45:00.588Z,26.66
2018-08-08T02:47:26.602Z,26.66
2018-08-08T02:49:52.614Z,26.65
2018-08-08T02:52:18.622Z,26.65
2018-08-08T02:54:44.664Z,26.64
2018-08-08T02:57:10.672Z,26.64
2018-08-08T02:59:36.696Z,26.64
2018-08-08T03:02:02.691Z,26.64
2018-08-08T03:04:28.750Z,26.64
2018-08-08T03:06:54.777Z,26.63
2018-08-08T03:09:20.791Z,26.63
2018-08-08T03:11:46.805Z,26.63
2018-08-08T03:14:12.861Z,26.62
2018-08-08T03:16:38.872Z,26.62
2018-08-08T03:19:04.884Z,26.62
2018-08-08T03:21:30.892Z,26.62
2018-08-08T03:23:56.927Z,26.63
2018-08-08T03:26:22.915Z,26.62
2018-08-08T03:28:48.919Z,26.63
2018-08-08T03:31:14.935Z,26.62
2018-08-08T03:33:40.946Z,26.62
2018-08-08T03:36:06.953Z,26.62
2018-08-08T03:38:32.961Z,26.63
2018-08-08T03:40:58.973Z,26.62
2018-08-08T03:43:24.979Z,26.63
2018-08-08T03:45:50.997Z,26.63
2018-08-08T03:48:17.004Z,26.63
2018-08-08T03:50:43.021Z,26.62
2018-08-08T03:53:09.031Z,26.62
2018-08-08T03:55:35.065Z,26.62
2018-08-08T03:58:01.072Z,26.62
2018-08-08T04:00:27.082Z,26.61
2018-08-08T04:02:53.154Z,26.61
2018-08-08T04:05:19.103Z,26.60
2018-08-08T04:07:45.154Z,26.60
2018-08-08T04:10:11.159Z,26.59
2018-08-08T04:12:37.168Z,26.60
2018-08-08T04:15:03.225Z,26.60
2018-08-08T04:17:29.248Z,26.60
2018-08-08T04:19:55.237Z,26.59
2018-08-08T04:22:21.257Z,26.59
2018-08-08T04:24:47.270Z,26.59
2018-08-08T04:27:13.309Z,26.58
2018-08-08T04:29:39.322Z,26.58
2018-08-08T04:32:05.399Z,26.58
2018-08-08T04:34:31.439Z,26.59
2018-08-08T04:36:57.477Z,26.61
2018-08-08T04:39:23.483Z,26.63
2018-08-08T04:41:49.487Z,26.66
2018-08-08T04:44:15.536Z,26.66
2018-08-08T04:46:41.532Z,26.68
2018-08-08T04:49:07.534Z,26.68
2018-08-08T04:51:33.541Z,26.67
2018-08-08T04:53:59.552Z,26.66
2018-08-08T04:56:25.566Z,26.68
2018-08-08T04:58:51.613Z,26.70
2018-08-08T05:01:17.616Z,26.68
2018-08-08T05:03:43.619Z,26.69
2018-08-08T05:06:09.643Z,26.69
2018-08-08T05:08:35.701Z,26.69
2018-08-08T05:11:01.721Z,26.68
2018-08-08T05:13:27.724Z,26.68
2018-08-08T05:15:53.740Z,26.65
2018-08-08T05:18:19.759Z,26.65
2018-08-08T05:20:45.777Z,26.65
2018-08-08T05:23:11.785Z,26.66
2018-08-08T05:25:37.795Z,26.66
2018-08-08T05:28:03.820Z,26.65
2018-08-08T05:30:29.840Z,26.65
2018-08-08T05:32:55.831Z,26.66
2018-08-08T05:35:21.846Z,26.65
2018-08-08T05:37:47.865Z,26.65
2018-08-08T05:40:13.902Z,26.66
2018-08-08T05:42:39.918Z,26.69
2018-08-08T05:45:06.020Z,26.69
2018-08-08T05:47:32.036Z,26.69
2018-08-08T05:49:58.055Z,26.69
2018-08-08T05:52:24.088Z,26.68
2018-08-08T05:54:50.153Z,26.66
2018-08-08T05:57:16.202Z,26.70
2018-08-08T05:59:42.173Z,26.67
2018-08-08T06:02:08.215Z,26.65
2018-08-08T06:04:34.229Z,26.65
2018-08-08T06:07:00.238Z,26.64
2018-08-08T06:09:26.256Z,26.63
2018-08-08T06:11:52.270Z,26.62
2018-08-08T06:14:18.333Z,26.60
2018-08-08T06:16:44.354Z,26.61
2018-08-08T06:19:10.337Z,26.62
2018-08-08T06:21:36.343Z,26.64
2018-08-08T06:24:02.353Z,26.70
2018-08-08T06:26:28.360Z,26.73
2018-08-08T06:28:54.372Z,26.72
2018-08-08T06:31:21.012Z,26.71
2018-08-08T06:33:47.001Z,26.73
2018-08-08T06:36:15.236Z,26.86
2018-08-08T06:38:41.250Z,27.11
2018-08-08T06:41:07.500Z,27.19
2018-08-08T06:43:33.868Z,27.04
2018-08-08T06:45:59.907Z,27.10
2018-08-08T06:48:25.915Z,27.08
2018-08-08T06:50:51.939Z,27.02
2018-08-08T06:53:18.354Z,27.03
2018-08-08T06:55:44.395Z,27.00
2018-08-08T06:58:12.161Z,26.99
2018-08-08T07:00:38.217Z,26.98
2018-08-08T07:03:04.229Z,26.98
2018-08-08T07:05:39.402Z,26.98
2018-08-08T07:08:08.744Z,27.01
2018-08-08T07:10:34.764Z,26.99
2018-08-08T07:13:00.776Z,26.97
2018-08-08T07:15:26.977Z,27.00
2018-08-08T07:17:57.446Z,27.00
2018-08-08T07:20:23.457Z,27.02
2018-08-08T07:22:49.562Z,27.00
2018-08-08T07:25:16.132Z,27.00
2018-08-08T07:27:42.189Z,26.99
2018-08-08T07:30:09.869Z,26.98
2018-08-08T07:32:35.882Z,26.95
2018-08-08T07:35:01.888Z,26.96
2018-08-08T07:37:28.859Z,26.96
2018-08-08T07:39:54.970Z,26.98
2018-08-08T07:42:20.946Z,26.99
2018-08-08T07:44:46.960Z,26.97
2018-08-08T07:47:13.008Z,26.97
2018-08-08T07:49:38.992Z,26.98
2018-08-08T07:52:05.032Z,26.97
2018-08-08T07:54:31.617Z,26.98
2018-08-08T07:56:57.633Z,26.96
2018-08-08T07:59:26.517Z,26.96
2018-08-08T08:01:53.264Z,26.97
2018-08-08T08:04:19.324Z,26.97
2018-08-08T08:06:45.687Z,26.96
2018-08-08T08:09:12.292Z,26.96
2018-08-08T08:11:38.691Z,26.95
2018-08-08T08:14:04.699Z,26.98
2018-08-08T08:16:30.946Z,26.97
2018-08-08T08:18:58.104Z,26.98
2018-08-08T08:21:24.154Z,26.97
2018-08-08T08:23:51.322Z,26.97
2018-08-08T08:26:17.500Z,26.98
2018-08-08T08:28:43.584Z,26.99
2018-08-08T08:31:09.593Z,27.00
2018-08-08T08:33:35.605Z,27.02
2018-08-08T08:36:01.678Z,27.03
2018-08-08T08:38:27.626Z,27.06
2018-08-08T08:40:53.642Z,27.06
2018-08-08T08:43:19.676Z,27.04
2018-08-08T08:45:45.693Z,27.04
2018-08-08T08:48:11.702Z,27.04
2018-08-08T08:50:37.716Z,27.04
2018-08-08T08:53:03.781Z,27.03
2018-08-08T08:55:29.805Z,27.01
2018-08-08T08:57:55.795Z,27.01
2018-08-08T09:00:21.889Z,27.04
2018-08-08T09:02:47.905Z,26.99
2018-08-08T09:05:13.939Z,26.98
2018-08-08T09:07:39.960Z,26.96
2018-08-08T09:10:05.960Z,26.95
2018-08-08T09:12:31.970Z,26.97
2018-08-08T09:14:58.030Z,26.99
2018-08-08T09:17:24.019Z,27.00
2018-08-08T09:19:50.097Z,27.00
2018-08-08T09:22:16.615Z,27.01
2018-08-08T09:24:42.630Z,27.00
2018-08-08T09:27:08.639Z,27.02
2018-08-08T09:29:34.684Z,27.02
2018-08-08T09:32:00.918Z,27.03
2018-08-08T09:34:26.939Z,27.03
2018-08-08T09:36:52.966Z,27.03
2018-08-08T09:39:18.996Z,27.02
2018-08-08T09:41:45.047Z,27.03
2018-08-08T09:44:11.096Z,27.04
2018-08-08T09:46:37.166Z,27.03
2018-08-08T09:49:03.178Z,27.04
2018-08-08T09:51:29.189Z,27.04
2018-08-08T09:53:55.198Z,27.03
2018-08-08T09:56:21.237Z,27.00
2018-08-08T09:58:47.246Z,27.07
2018-08-08T10:01:13.271Z,27.08
2018-08-08T10:03:39.348Z,27.07
2018-08-08T10:06:05.349Z,27.06
2018-08-08T10:08:31.373Z,27.03
2018-08-08T10:10:57.390Z,27.05
2018-08-08T10:13:23.408Z,27.08
2018-08-08T10:15:49.421Z,27.08
2018-08-08T10:18:15.434Z,27.07
2018-08-08T10:20:41.479Z,27.04
2018-08-08T10:23:07.463Z,27.04
2018-08-08T10:25:33.476Z,27.06
2018-08-08T10:27:59.490Z,27.06
2018-08-08T10:30:25.533Z,27.05
2018-08-08T10:32:51.551Z,27.03
2018-08-08T10:35:17.567Z,27.06
2018-08-08T10:37:43.516Z,27.09
2018-08-08T10:40:09.539Z,27.11
2018-08-08T10:42:35.514Z,27.07
2018-08-08T10:45:01.499Z,27.06
2018-08-08T10:47:27.472Z,27.06
2018-08-08T10:49:53.558Z,27.11
2018-08-08T10:52:19.480Z,27.09
2018-08-08T10:54:45.508Z,27.13
2018-08-08T10:57:11.461Z,27.13
2018-08-08T10:59:37.569Z,27.10
2018-08-08T11:02:03.442Z,27.12
2018-08-08T11:04:29.417Z,27.13
2018-08-08T11:06:55.480Z,27.12
2018-08-08T11:09:21.459Z,27.12
2018-08-08T11:11:47.464Z,27.13
2018-08-08T11:14:13.436Z,27.16
2018-08-08T11:16:39.423Z,27.14
2018-08-08T11:19:05.921Z,27.20
2018-08-08T11:21:31.898Z,27.19
2018-08-08T11:23:57.910Z,27.17
2018-08-08T11:26:23.858Z,27.17
2018-08-08T11:28:49.875Z,27.14
2018-08-08T11:31:15.856Z,27.12
2018-08-08T11:33:41.845Z,27.12
2018-08-08T11:36:07.823Z,27.12
2018-08-08T11:38:33.808Z,27.14
2018-08-08T11:40:59.788Z,27.17
2018-08-08T11:43:25.776Z,27.18
2018-08-08T11:45:51.766Z,27.19
2018-08-08T11:48:17.754Z,27.18
2018-08-08T11:50:43.731Z,27.20
2018-08-08T11:53:09.758Z,27.19
2018-08-08T11:55:35.743Z,27.18
2018-08-08T11:58:01.758Z,27.19
2018-08-08T12:00:27.749Z,27.19
2018-08-08T12:02:53.713Z,27.19
2018-08-08T12:05:19.700Z,27.19
2018-08-08T12:07:45.683Z,27.20
2018-08-08T12:10:11.688Z,27.21
2018-08-08T12:12:37.684Z,27.22
2018-08-08T12:15:03.676Z,27.19
2018-08-08T12:17:29.694Z,27.20
2018-08-08T12:19:55.790Z,27.20
2018-08-08T12:22:21.770Z,27.20
2018-08-08T12:24:47.748Z,27.21
2018-08-08T12:27:13.730Z,27.20
2018-08-08T12:29:39.715Z,27.22
2018-08-08T12:32:05.700Z,27.31
2018-08-08T12:34:31.677Z,27.25
2018-08-08T12:36:57.649Z,27.22
2018-08-08T12:39:23.704Z,27.19
2018-08-08T12:41:49.627Z,27.18
2018-08-08T12:44:15.604Z,27.17
2018-08-08T12:46:41.610Z,27.19
2018-08-08T12:49:07.607Z,27.18
2018-08-08T12:51:33.596Z,27.18
2018-08-08T12:53:59.579Z,27.18
2018-08-08T12:56:25.556Z,27.20
2018-08-08T12:58:51.538Z,27.20
2018-08-08T13:01:17.525Z,27.22
2018-08-08T13:03:43.508Z,27.24
2018-08-08T13:06:09.594Z,27.23
2018-08-08T13:08:35.519Z,27.26
2018-08-08T13:11:01.477Z,27.28
2018-08-08T13:13:27.515Z,27.20
2018-08-08T13:15:53.508Z,27.19
2018-08-08T13:18:19.484Z,27.17
2018-08-08T13:20:45.455Z,27.18
2018-08-08T13:23:11.468Z,27.15
2018-08-08T13:25:37.443Z,27.24
2018-08-08T13:28:03.485Z,27.31
2018-08-08T13:30:29.531Z,27.30
2018-08-08T13:32:55.517Z,27.35
2018-08-08T13:38:05.592Z,27.53
2018-08-08T13:40:31.578Z,27.52
2018-08-08T13:42:57.558Z,27.51
2018-08-08T13:45:23.626Z,27.54
2018-08-08T13:47:49.550Z,27.53
2018-08-08T13:50:15.537Z,27.56
2018-08-08T13:52:41.518Z,27.51
2018-08-08T13:55:07.532Z,27.48
2018-08-08T13:57:33.500Z,27.45
2018-08-08T13:59:59.476Z,27.45
2018-08-08T14:02:25.505Z,27.47
2018-08-08T14:04:51.500Z,27.48
2018-08-08T14:07:17.522Z,27.48
2018-08-08T14:09:43.679Z,27.43
2018-08-08T14:12:09.638Z,27.45
2018-08-08T14:14:35.573Z,27.45
2018-08-08T14:17:01.554Z,27.41
2018-08-08T14:19:27.545Z,27.46
2018-08-08T14:21:53.625Z,27.46
2018-08-08T14:24:20.023Z,27.45
2018-08-08T14:26:46.022Z,27.42
2018-08-08T14:29:12.036Z,27.40
2018-08-08T14:31:37.989Z,27.37
2018-08-08T14:34:03.960Z,27.36
2018-08-08T14:36:29.981Z,27.36
2018-08-08T14:38:55.959Z,27.37
2018-08-08T14:41:21.936Z,27.36
2018-08-08T14:43:47.928Z,27.35
2018-08-08T14:46:13.928Z,27.35
2018-08-08T14:48:39.906Z,27.37
2018-08-08T14:51:05.885Z,27.38
2018-08-08T14:53:32.112Z,27.37
2018-08-08T14:55:58.073Z,27.36
2018-08-08T14:58:24.052Z,27.36
2018-08-08T15:00:50.037Z,27.36
2018-08-08T15:03:16.054Z,27.38
2018-08-08T15:05:42.357Z,27.37
2018-08-08T15:08:08.358Z,27.38
2018-08-08T15:10:34.343Z,27.38
2018-08-08T15:13:00.371Z,27.35
2018-08-08T15:15:26.345Z,27.34
2018-08-08T15:17:52.567Z,27.34
2018-08-08T15:20:18.586Z,27.37
2018-08-08T15:22:44.555Z,27.41
2018-08-08T15:25:10.542Z,27.40
2018-08-08T15:27:36.544Z,27.38
2018-08-08T15:30:02.656Z,27.37
2018-08-08T15:32:28.994Z,27.38
2018-08-08T15:34:54.944Z,27.38
2018-08-08T15:37:21.328Z,27.39
2018-08-08T15:39:46.918Z,27.43
2018-08-08T15:42:13.034Z,27.41
2018-08-08T15:44:39.004Z,27.41
2018-08-08T15:47:04.988Z,27.40
2018-08-08T15:49:30.952Z,27.42
2018-08-08T15:51:56.939Z,27.43
2018-08-08T15:54:23.231Z,27.46
2018-08-08T15:56:49.216Z,27.50
2018-08-08T15:59:15.186Z,27.51
2018-08-08T16:01:41.171Z,27.54
2018-08-08T16:04:07.278Z,27.55
2018-08-08T16:06:33.744Z,27.55
2018-08-08T16:08:59.759Z,27.50
2018-08-08T16:11:25.733Z,27.50
2018-08-08T16:13:51.743Z,27.47
2018-08-08T16:16:17.720Z,27.46
2018-08-08T16:18:43.815Z,27.45
2018-08-08T16:21:09.862Z,27.52
2018-08-08T16:23:35.861Z,27.55
2018-08-08T16:26:01.840Z,27.54
2018-08-08T16:28:27.826Z,27.56
2018-08-08T16:30:53.809Z,27.57
2018-08-08T16:33:19.792Z,27.58
2018-08-08T16:35:45.771Z,27.55
2018-08-08T16:38:11.791Z,27.54
2018-08-08T16:40:37.986Z,27.56
2018-08-08T16:43:03.962Z,27.58
2018-08-08T16:45:29.942Z,27.58
2018-08-08T16:47:55.941Z,27.61
2018-08-08T16:50:21.950Z,27.61
2018-08-08T16:52:47.955Z,27.60
2018-08-08T16:55:14.199Z,27.58
2018-08-08T16:57:40.140Z,27.61
2018-08-08T17:00:06.129Z,27.57
2018-08-08T17:02:32.157Z,27.55
2018-08-08T17:04:58.131Z,27.55
2018-08-08T17:07:24.245Z,27.54
2018-08-08T17:09:50.221Z,27.55
2018-08-08T17:12:16.204Z,27.53
2018-08-08T17:14:42.176Z,27.56
2018-08-08T17:17:08.361Z,27.52
2018-08-08T17:19:34.338Z,27.52
2018-08-08T17:22:00.318Z,27.52
2018-08-08T17:24:26.297Z,27.52
2018-08-08T17:26:52.637Z,27.52
2018-08-08T17:29:18.617Z,27.52
2018-08-08T17:31:44.605Z,27.50
2018-08-08T17:34:10.673Z,27.48
2018-08-08T17:36:36.705Z,27.49
2018-08-08T17:39:02.933Z,27.48
2018-08-08T17:41:28.908Z,27.51
2018-08-08T17:43:55.145Z,27.49
2018-08-08T17:46:20.881Z,27.50
2018-08-08T17:48:46.858Z,27.51
2018-08-08T17:51:12.870Z,27.47
2018-08-08T17:53:38.841Z,27.46
2018-08-08T17:56:04.862Z,27.50
2018-08-08T17:58:30.857Z,27.51
2018-08-08T18:00:56.989Z,27.49
2018-08-08T18:03:22.971Z,27.48
2018-08-08T18:05:48.973Z,27.46
2018-08-08T18:08:14.949Z,27.46
2018-08-08T18:10:40.937Z,27.45
2018-08-08T18:13:06.902Z,27.44
2018-08-08T18:15:32.907Z,27.50
2018-08-08T18:17:58.864Z,27.43
2018-08-08T18:20:24.842Z,27.45
2018-08-08T18:22:50.819Z,27.43
2018-08-08T18:25:16.798Z,27.43
2018-08-08T18:27:42.818Z,27.44
2018-08-08T18:30:09.146Z,27.44
2018-08-08T18:32:35.182Z,27.45
2018-08-08T18:35:01.201Z,27.51
2018-08-08T18:37:27.149Z,27.52
2018-08-08T18:39:53.413Z,27.48
2018-08-08T18:42:19.446Z,27.46
2018-08-08T18:44:45.423Z,27.44
2018-08-08T18:47:11.404Z,27.45
2018-08-08T18:49:37.388Z,27.50
2018-08-08T18:52:03.403Z,27.49
2018-08-08T18:56:02.552Z,27.38
2018-08-08T18:58:28.557Z,27.29
2018-08-08T19:00:54.528Z,27.25
2018-08-08T19:03:20.528Z,27.24
2018-08-08T19:05:46.496Z,27.22
2018-08-08T19:08:12.572Z,27.22
2018-08-08T19:10:38.572Z,27.21
2018-08-08T19:13:04.943Z,27.20
2018-08-08T19:15:30.994Z,27.19
2018-08-08T19:17:57.036Z,27.19
2018-08-08T19:20:23.008Z,27.19
2018-08-08T19:22:48.987Z,27.21
2018-08-08T19:25:14.972Z,27.21
2018-08-08T19:27:40.948Z,27.21
2018-08-08T19:30:07.070Z,27.22
2018-08-08T19:32:33.046Z,27.22
2018-08-08T19:34:59.029Z,27.23
2018-08-08T19:37:25.009Z,27.22
2018-08-08T19:39:50.984Z,27.22
2018-08-08T19:42:16.976Z,27.23
2018-08-08T19:44:42.976Z,27.24
2018-08-08T19:47:08.950Z,27.23
2018-08-08T19:49:34.934Z,27.22
2018-08-08T19:52:00.944Z,27.21
2018-08-08T19:54:26.967Z,27.20
2018-08-08T19:56:53.335Z,27.21
2018-08-08T19:59:19.509Z,27.20
2018-08-08T20:01:45.494Z,27.19
2018-08-08T20:04:11.506Z,27.19
2018-08-08T20:06:39.223Z,27.19
2018-08-08T20:09:05.277Z,27.19
2018-08-08T20:11:31.222Z,27.19
2018-08-08T20:13:57.224Z,27.19
2018-08-08T20:16:23.263Z,27.17
2018-08-08T20:18:49.240Z,27.17
2018-08-08T20:21:15.217Z,27.16
2018-08-08T20:23:41.216Z,27.16
2018-08-08T20:26:08.682Z,27.15
2018-08-08T20:28:34.664Z,27.14
2018-08-08T20:31:00.650Z,27.14
2018-08-08T20:33:26.635Z,27.13
2018-08-08T20:35:52.630Z,27.13
2018-08-08T20:38:18.610Z,27.13
2018-08-08T20:40:44.588Z,27.13
2018-08-08T20:43:10.578Z,27.12
2018-08-08T20:45:36.562Z,27.12
2018-08-08T20:48:02.592Z,27.11
2018-08-08T20:50:28.574Z,27.10
2018-08-08T20:52:54.624Z,27.11
2018-08-08T20:55:20.568Z,27.10
2018-08-08T20:57:46.760Z,27.11
2018-08-08T21:00:12.813Z,27.12
2018-08-08T21:02:38.791Z,27.12
2018-08-08T21:05:04.769Z,27.15
2018-08-08T21:07:30.749Z,27.19
2018-08-08T21:09:56.723Z,27.22
2018-08-08T21:12:22.700Z,27.21
2018-08-08T21:14:50.358Z,27.20
2018-08-08T21:17:16.344Z,27.21
2018-08-08T21:19:42.509Z,27.21
2018-08-08T21:22:08.490Z,27.22
2018-08-08T21:24:34.549Z,27.23
2018-08-08T21:27:00.536Z,27.23
2018-08-08T21:29:26.622Z,27.24
2018-08-08T21:31:52.604Z,27.24
2018-08-08T21:34:18.607Z,27.24
2018-08-08T21:36:44.594Z,27.25
2018-08-08T21:39:12.383Z,27.24
2018-08-08T21:41:38.499Z,27.25
2018-08-08T21:44:10.931Z,27.26
2018-08-08T21:46:36.900Z,27.26
2018-08-08T21:49:03.060Z,27.26
2018-08-08T21:51:29.026Z,27.25
2018-08-08T21:53:55.008Z,27.23
2018-08-08T21:56:20.985Z,27.21
2018-08-08T21:58:46.964Z,27.20
2018-08-08T22:01:13.015Z,27.19
2018-08-08T22:03:38.927Z,27.19
2018-08-08T22:06:04.905Z,27.17
2018-08-08T22:08:30.876Z,27.17
2018-08-08T22:10:56.861Z,27.16
2018-08-08T22:13:22.838Z,27.16
2018-08-08T22:15:48.818Z,27.15
2018-08-08T22:18:14.808Z,27.15
2018-08-08T22:20:40.783Z,27.14
2018-08-08T22:23:06.756Z,27.14
2018-08-08T22:25:32.736Z,27.13
2018-08-08T22:27:58.713Z,27.13
2018-08-08T22:30:24.693Z,27.12
2018-08-08T22:32:50.692Z,27.12
2018-08-08T22:35:16.665Z,27.11
2018-08-08T22:37:42.646Z,27.12
2018-08-08T22:40:08.632Z,27.10
2018-08-08T22:42:34.610Z,27.11
2018-08-08T22:45:00.586Z,27.10
2018-08-08T22:47:26.608Z,27.10
2018-08-08T22:49:52.577Z,27.09
2018-08-08T22:52:18.689Z,27.10
2018-08-08T22:54:44.680Z,27.09
2018-08-08T22:57:10.657Z,27.09
2018-08-08T22:59:36.637Z,27.09
2018-08-08T23:02:02.615Z,27.08
2018-08-08T23:04:28.595Z,27.07
2018-08-08T23:06:54.575Z,27.07
2018-08-08T23:09:20.549Z,27.06
2018-08-08T23:11:46.526Z,27.05
2018-08-08T23:14:12.500Z,27.05
2018-08-08T23:16:38.474Z,27.05
2018-08-08T23:19:04.496Z,27.04
2018-08-08T23:21:30.469Z,27.04
2018-08-08T23:23:56.441Z,27.04
2018-08-08T23:26:22.457Z,27.04
2018-08-08T23:28:48.425Z,27.04
2018-08-08T23:31:14.403Z,27.04
2018-08-08T23:33:40.414Z,27.04
2018-08-08T23:36:06.389Z,27.04
2018-08-08T23:38:32.372Z,27.04
2018-08-08T23:40:58.350Z,27.04
2018-08-08T23:43:24.363Z,27.04
2018-08-08T23:45:50.339Z,27.03
2018-08-08T23:48:16.318Z,27.04
2018-08-08T23:50:42.297Z,27.03
2018-08-08T23:53:08.282Z,27.04
2018-08-08T23:55:34.257Z,27.03
2018-08-08T23:58:00.237Z,27.04
